sensor_id;sensor_type;location;lat;lon;timestamp;temperature;humidity
2100;DHT22;1055;48.854;9.302;2023-04-25T00:01:05;9.30;99.90
2100;DHT22;1055;48.854;9.302;2023-04-25T00:03:31;9.30;99.90
2100;DHT22;1055;48.854;9.302;2023-04-25T00:05:58;9.20;99.90
2100;DHT22;1055;48.854;9.302;2023-04-25T00:08:28;9.20;99.90
2100;DHT22;1055;48.854;9.302;2023-04-25T00:10:53;9.30;99.90
2100;DHT22;1055;48.854;9.302;2023-04-25T00:13:19;9.30;99.90
2100;DHT22;1055;48.854;9.302;2023-04-25T00:15:45;9.40;99.90
2100;DHT22;1055;48.854;9.302;2023-04-25T00:18:11;9.30;99.90
2100;DHT22;1055;48.854;9.302;2023-04-25T00:20:37;9.40;99.90
2100;DHT22;1055;48.854;9.302;2023-04-25T00:23:02;9.20;99.90
2100;DHT22;1055;48.854;9.302;2023-04-25T00:25:28;9.30;99.90
2100;DHT22;1055;48.854;9.302;2023-04-25T00:27:54;9.20;99.90
2100;DHT22;1055;48.854;9.302;2023-04-25T00:30:20;9.20;99.90
2100;DHT22;1055;48.854;9.302;2023-04-25T00:32:45;9.10;99.90
2100;DHT22;1055;48.854;9.302;2023-04-25T00:35:11;9.20;99.90
2100;DHT22;1055;48.854;9.302;2023-04-25T00:37:37;9.20;99.90
2100;DHT22;1055;48.854;9.302;2023-04-25T00:40:05;9.50;99.90
2100;DHT22;1055;48.854;9.302;2023-04-25T00:42:31;9.10;99.90
2100;DHT22;1055;48.854;9.302;2023-04-25T00:44:58;9.20;99.90
2100;DHT22;1055;48.854;9.302;2023-04-25T00:47:25;9.10;99.90
2100;DHT22;1055;48.854;9.302;2023-04-25T00:49:50;9.10;99.90
2100;DHT22;1055;48.854;9.302;2023-04-25T00:52:16;9.10;99.90
2100;DHT22;1055;48.854;9.302;2023-04-25T00:54:42;9.30;99.90
2100;DHT22;1055;48.854;9.302;2023-04-25T00:57:08;9.40;99.90
2100;DHT22;1055;48.854;9.302;2023-04-25T00:59:34;9.40;99.90
2100;DHT22;1055;48.854;9.302;2023-04-25T01:02:01;9.40;99.90
2100;DHT22;1055;48.854;9.302;2023-04-25T01:04:30;9.40;99.90
2100;DHT22;1055;48.854;9.302;2023-04-25T01:06:55;9.40;99.90
2100;DHT22;1055;48.854;9.302;2023-04-25T01:09:22;9.20;99.90
2100;DHT22;1055;48.854;9.302;2023-04-25T01:11:49;9.30;99.90
2100;DHT22;1055;48.854;9.302;2023-04-25T01:14:15;9.30;99.90
2100;DHT22;1055;48.854;9.302;2023-04-25T01:16:40;9.30;99.90
2100;DHT22;1055;48.854;9.302;2023-04-25T01:19:10;9.20;99.90
2100;DHT22;1055;48.854;9.302;2023-04-25T01:21:39;9.30;99.90
2100;DHT22;1055;48.854;9.302;2023-04-25T01:24:05;9.30;99.90
2100;DHT22;1055;48.854;9.302;2023-04-25T01:26:31;9.30;99.90
2100;DHT22;1055;48.854;9.302;2023-04-25T01:28:58;9.40;99.90
2100;DHT22;1055;48.854;9.302;2023-04-25T01:31:24;9.40;99.90
2100;DHT22;1055;48.854;9.302;2023-04-25T01:33:49;9.40;99.90
2100;DHT22;1055;48.854;9.302;2023-04-25T01:36:15;9.40;99.90
2100;DHT22;1055;48.854;9.302;2023-04-25T01:38:41;9.30;99.90
2100;DHT22;1055;48.854;9.302;2023-04-25T01:41:07;9.30;99.90
2100;DHT22;1055;48.854;9.302;2023-04-25T01:43:33;9.30;99.90
2100;DHT22;1055;48.854;9.302;2023-04-25T01:45:59;9.40;99.90
2100;DHT22;1055;48.854;9.302;2023-04-25T01:48:24;9.60;99.90
2100;DHT22;1055;48.854;9.302;2023-04-25T01:50:50;9.70;99.90
2100;DHT22;1055;48.854;9.302;2023-04-25T01:53:16;9.70;99.90
2100;DHT22;1055;48.854;9.302;2023-04-25T01:55:42;9.60;99.90
2100;DHT22;1055;48.854;9.302;2023-04-25T01:58:08;9.60;99.90
2100;DHT22;1055;48.854;9.302;2023-04-25T02:00:35;9.50;99.90
2100;DHT22;1055;48.854;9.302;2023-04-25T02:03:04;9.40;99.90
2100;DHT22;1055;48.854;9.302;2023-04-25T02:05:34;9.40;99.90
2100;DHT22;1055;48.854;9.302;2023-04-25T02:08:01;9.50;99.90
2100;DHT22;1055;48.854;9.302;2023-04-25T02:10:26;9.30;99.90
2100;DHT22;1055;48.854;9.302;2023-04-25T02:12:52;9.40;99.90
2100;DHT22;1055;48.854;9.302;2023-04-25T02:15:17;9.50;99.90
2100;DHT22;1055;48.854;9.302;2023-04-25T02:17:43;9.30;99.90
2100;DHT22;1055;48.854;9.302;2023-04-25T02:20:10;9.40;99.90
2100;DHT22;1055;48.854;9.302;2023-04-25T02:22:36;9.30;99.90
2100;DHT22;1055;48.854;9.302;2023-04-25T02:25:02;9.30;99.90
2100;DHT22;1055;48.854;9.302;2023-04-25T02:27:30;9.30;99.90
2100;DHT22;1055;48.854;9.302;2023-04-25T02:29:56;9.30;99.90
2100;DHT22;1055;48.854;9.302;2023-04-25T02:32:21;9.40;99.90
2100;DHT22;1055;48.854;9.302;2023-04-25T02:34:47;9.40;99.90
2100;DHT22;1055;48.854;9.302;2023-04-25T02:37:13;9.40;99.90
2100;DHT22;1055;48.854;9.302;2023-04-25T02:39:39;9.50;99.90
2100;DHT22;1055;48.854;9.302;2023-04-25T02:42:04;9.50;99.90
2100;DHT22;1055;48.854;9.302;2023-04-25T02:44:30;9.60;99.90
2100;DHT22;1055;48.854;9.302;2023-04-25T02:46:56;9.50;99.90
2100;DHT22;1055;48.854;9.302;2023-04-25T02:49:21;9.40;99.90
2100;DHT22;1055;48.854;9.302;2023-04-25T02:51:47;9.40;99.90
2100;DHT22;1055;48.854;9.302;2023-04-25T02:54:12;9.00;99.90
2100;DHT22;1055;48.854;9.302;2023-04-25T02:56:38;8.90;99.90
2100;DHT22;1055;48.854;9.302;2023-04-25T02:59:04;8.80;99.90
2100;DHT22;1055;48.854;9.302;2023-04-25T03:01:29;8.80;99.90
2100;DHT22;1055;48.854;9.302;2023-04-25T03:03:55;8.80;99.90
2100;DHT22;1055;48.854;9.302;2023-04-25T03:06:20;8.80;99.90
2100;DHT22;1055;48.854;9.302;2023-04-25T03:08:46;8.80;99.90
2100;DHT22;1055;48.854;9.302;2023-04-25T03:11:12;8.90;99.90
2100;DHT22;1055;48.854;9.302;2023-04-25T03:13:37;9.70;99.90
2100;DHT22;1055;48.854;9.302;2023-04-25T03:16:03;9.00;99.90
2100;DHT22;1055;48.854;9.302;2023-04-25T03:18:29;9.00;99.90
2100;DHT22;1055;48.854;9.302;2023-04-25T03:20:54;9.00;99.90
2100;DHT22;1055;48.854;9.302;2023-04-25T03:23:20;8.90;99.90
2100;DHT22;1055;48.854;9.302;2023-04-25T03:25:46;8.80;99.90
2100;DHT22;1055;48.854;9.302;2023-04-25T03:28:12;8.80;99.90
2100;DHT22;1055;48.854;9.302;2023-04-25T03:30:37;8.70;99.90
2100;DHT22;1055;48.854;9.302;2023-04-25T03:33:03;8.70;99.90
2100;DHT22;1055;48.854;9.302;2023-04-25T03:35:28;8.60;99.90
2100;DHT22;1055;48.854;9.302;2023-04-25T03:37:54;8.60;99.90
2100;DHT22;1055;48.854;9.302;2023-04-25T03:40:19;8.70;99.90
2100;DHT22;1055;48.854;9.302;2023-04-25T03:42:45;8.80;99.90
2100;DHT22;1055;48.854;9.302;2023-04-25T03:45:11;8.70;99.90
2100;DHT22;1055;48.854;9.302;2023-04-25T03:47:36;8.60;99.90
2100;DHT22;1055;48.854;9.302;2023-04-25T03:50:02;8.60;99.90
2100;DHT22;1055;48.854;9.302;2023-04-25T03:52:28;8.50;99.90
2100;DHT22;1055;48.854;9.302;2023-04-25T03:54:53;8.50;99.90
2100;DHT22;1055;48.854;9.302;2023-04-25T03:57:19;8.60;99.90
2100;DHT22;1055;48.854;9.302;2023-04-25T03:59:45;8.70;99.90
2100;DHT22;1055;48.854;9.302;2023-04-25T04:02:10;8.70;99.90
2100;DHT22;1055;48.854;9.302;2023-04-25T04:04:36;8.90;99.90
2100;DHT22;1055;48.854;9.302;2023-04-25T04:07:02;8.70;99.90
2100;DHT22;1055;48.854;9.302;2023-04-25T04:09:28;8.80;99.90
2100;DHT22;1055;48.854;9.302;2023-04-25T04:11:53;8.70;99.90
2100;DHT22;1055;48.854;9.302;2023-04-25T04:14:19;8.70;99.90
2100;DHT22;1055;48.854;9.302;2023-04-25T04:16:45;8.80;99.90
2100;DHT22;1055;48.854;9.302;2023-04-25T04:19:11;8.70;99.90
2100;DHT22;1055;48.854;9.302;2023-04-25T04:21:36;8.70;99.90
2100;DHT22;1055;48.854;9.302;2023-04-25T04:24:02;8.60;99.90
2100;DHT22;1055;48.854;9.302;2023-04-25T04:26:28;8.70;99.90
2100;DHT22;1055;48.854;9.302;2023-04-25T04:28:53;8.60;99.90
2100;DHT22;1055;48.854;9.302;2023-04-25T04:31:23;8.50;99.90
2100;DHT22;1055;48.854;9.302;2023-04-25T04:33:49;8.50;99.90
2100;DHT22;1055;48.854;9.302;2023-04-25T04:36:15;8.50;99.90
2100;DHT22;1055;48.854;9.302;2023-04-25T04:38:41;8.40;99.90
2100;DHT22;1055;48.854;9.302;2023-04-25T04:41:08;8.30;99.90
2100;DHT22;1055;48.854;9.302;2023-04-25T04:43:33;8.30;99.90
2100;DHT22;1055;48.854;9.302;2023-04-25T04:46:02;8.40;99.90
2100;DHT22;1055;48.854;9.302;2023-04-25T04:48:30;8.40;99.90
2100;DHT22;1055;48.854;9.302;2023-04-25T04:50:58;8.50;99.90
2100;DHT22;1055;48.854;9.302;2023-04-25T04:53:24;8.60;99.90
2100;DHT22;1055;48.854;9.302;2023-04-25T04:55:49;8.70;99.90
2100;DHT22;1055;48.854;9.302;2023-04-25T04:58:15;8.70;99.90
2100;DHT22;1055;48.854;9.302;2023-04-25T05:00:41;8.70;99.90
2100;DHT22;1055;48.854;9.302;2023-04-25T05:03:06;8.80;99.90
2100;DHT22;1055;48.854;9.302;2023-04-25T05:05:32;8.70;99.90
2100;DHT22;1055;48.854;9.302;2023-04-25T05:07:58;8.80;99.90
2100;DHT22;1055;48.854;9.302;2023-04-25T05:10:24;8.80;99.90
2100;DHT22;1055;48.854;9.302;2023-04-25T05:12:49;8.80;99.90
2100;DHT22;1055;48.854;9.302;2023-04-25T05:15:15;8.80;99.90
2100;DHT22;1055;48.854;9.302;2023-04-25T05:17:41;8.70;99.90
2100;DHT22;1055;48.854;9.302;2023-04-25T05:20:07;8.70;99.90
2100;DHT22;1055;48.854;9.302;2023-04-25T05:22:35;8.80;99.90
2100;DHT22;1055;48.854;9.302;2023-04-25T05:25:01;8.70;99.90
2100;DHT22;1055;48.854;9.302;2023-04-25T05:27:27;8.80;99.90
2100;DHT22;1055;48.854;9.302;2023-04-25T05:29:52;9.00;99.90
2100;DHT22;1055;48.854;9.302;2023-04-25T05:32:18;9.10;99.90
2100;DHT22;1055;48.854;9.302;2023-04-25T05:34:44;9.20;99.90
2100;DHT22;1055;48.854;9.302;2023-04-25T05:37:09;9.40;99.90
2100;DHT22;1055;48.854;9.302;2023-04-25T05:39:35;9.20;99.90
2100;DHT22;1055;48.854;9.302;2023-04-25T05:42:01;9.10;99.90
2100;DHT22;1055;48.854;9.302;2023-04-25T05:44:26;9.00;99.90
2100;DHT22;1055;48.854;9.302;2023-04-25T05:46:52;8.90;99.90
2100;DHT22;1055;48.854;9.302;2023-04-25T05:49:18;8.90;99.90
2100;DHT22;1055;48.854;9.302;2023-04-25T05:51:43;8.70;99.90
2100;DHT22;1055;48.854;9.302;2023-04-25T05:54:09;8.70;99.90
2100;DHT22;1055;48.854;9.302;2023-04-25T05:56:35;8.60;99.90
2100;DHT22;1055;48.854;9.302;2023-04-25T05:59:00;8.70;99.90
2100;DHT22;1055;48.854;9.302;2023-04-25T06:01:26;8.60;99.90
2100;DHT22;1055;48.854;9.302;2023-04-25T06:03:52;8.50;99.90
2100;DHT22;1055;48.854;9.302;2023-04-25T06:06:18;8.40;99.90
2100;DHT22;1055;48.854;9.302;2023-04-25T06:08:44;8.40;99.90
2100;DHT22;1055;48.854;9.302;2023-04-25T06:11:10;8.40;99.90
2100;DHT22;1055;48.854;9.302;2023-04-25T06:13:35;8.50;99.90
2100;DHT22;1055;48.854;9.302;2023-04-25T06:16:01;8.40;99.90
2100;DHT22;1055;48.854;9.302;2023-04-25T06:18:27;8.50;99.90
2100;DHT22;1055;48.854;9.302;2023-04-25T06:20:52;8.50;99.90
2100;DHT22;1055;48.854;9.302;2023-04-25T06:23:18;8.50;99.90
2100;DHT22;1055;48.854;9.302;2023-04-25T06:25:43;8.50;99.90
2100;DHT22;1055;48.854;9.302;2023-04-25T06:28:09;8.70;99.90
2100;DHT22;1055;48.854;9.302;2023-04-25T06:30:34;8.80;99.90
2100;DHT22;1055;48.854;9.302;2023-04-25T06:33:00;8.80;99.90
2100;DHT22;1055;48.854;9.302;2023-04-25T06:35:26;8.90;99.90
2100;DHT22;1055;48.854;9.302;2023-04-25T06:37:51;8.90;99.90
2100;DHT22;1055;48.854;9.302;2023-04-25T06:40:17;8.90;99.90
2100;DHT22;1055;48.854;9.302;2023-04-25T06:42:42;9.20;99.90
2100;DHT22;1055;48.854;9.302;2023-04-25T06:45:08;9.20;99.90
2100;DHT22;1055;48.854;9.302;2023-04-25T06:47:34;9.20;99.90
2100;DHT22;1055;48.854;9.302;2023-04-25T06:50:00;9.30;99.90
2100;DHT22;1055;48.854;9.302;2023-04-25T06:52:25;9.10;99.90
2100;DHT22;1055;48.854;9.302;2023-04-25T06:54:51;9.40;99.90
2100;DHT22;1055;48.854;9.302;2023-04-25T06:57:16;9.50;99.90
2100;DHT22;1055;48.854;9.302;2023-04-25T06:59:42;9.80;99.90
2100;DHT22;1055;48.854;9.302;2023-04-25T07:02:08;9.70;99.90
2100;DHT22;1055;48.854;9.302;2023-04-25T07:04:33;9.80;99.90
2100;DHT22;1055;48.854;9.302;2023-04-25T07:06:59;10.00;99.90
2100;DHT22;1055;48.854;9.302;2023-04-25T07:09:28;10.10;99.90
2100;DHT22;1055;48.854;9.302;2023-04-25T07:11:53;10.00;99.90
2100;DHT22;1055;48.854;9.302;2023-04-25T07:14:19;9.90;99.90
2100;DHT22;1055;48.854;9.302;2023-04-25T07:16:44;10.00;99.90
2100;DHT22;1055;48.854;9.302;2023-04-25T07:19:10;10.10;99.90
2100;DHT22;1055;48.854;9.302;2023-04-25T07:21:35;10.20;99.90
2100;DHT22;1055;48.854;9.302;2023-04-25T07:24:02;9.80;99.90
2100;DHT22;1055;48.854;9.302;2023-04-25T07:26:27;9.90;99.90
2100;DHT22;1055;48.854;9.302;2023-04-25T07:28:53;9.90;99.90
2100;DHT22;1055;48.854;9.302;2023-04-25T07:31:20;9.90;99.90
2100;DHT22;1055;48.854;9.302;2023-04-25T07:33:46;9.70;99.90
2100;DHT22;1055;48.854;9.302;2023-04-25T07:36:12;9.80;99.90
2100;DHT22;1055;48.854;9.302;2023-04-25T07:38:39;9.70;99.90
2100;DHT22;1055;48.854;9.302;2023-04-25T07:41:04;9.80;99.90
2100;DHT22;1055;48.854;9.302;2023-04-25T07:43:30;10.00;99.90
2100;DHT22;1055;48.854;9.302;2023-04-25T07:45:56;9.50;99.90
2100;DHT22;1055;48.854;9.302;2023-04-25T07:48:22;9.60;99.90
2100;DHT22;1055;48.854;9.302;2023-04-25T07:50:47;9.80;99.90
2100;DHT22;1055;48.854;9.302;2023-04-25T07:53:13;9.90;99.90
2100;DHT22;1055;48.854;9.302;2023-04-25T07:55:39;9.90;99.90
2100;DHT22;1055;48.854;9.302;2023-04-25T07:58:09;9.80;99.90
2100;DHT22;1055;48.854;9.302;2023-04-25T08:00:35;9.80;99.90
2100;DHT22;1055;48.854;9.302;2023-04-25T08:03:01;9.50;99.90
2100;DHT22;1055;48.854;9.302;2023-04-25T08:05:28;9.50;99.90
2100;DHT22;1055;48.854;9.302;2023-04-25T08:07:54;9.50;99.90
2100;DHT22;1055;48.854;9.302;2023-04-25T08:10:20;9.40;99.90
2100;DHT22;1055;48.854;9.302;2023-04-25T08:12:47;9.10;99.90
2100;DHT22;1055;48.854;9.302;2023-04-25T08:15:15;9.20;99.90
2100;DHT22;1055;48.854;9.302;2023-04-25T08:17:41;9.10;99.90
2100;DHT22;1055;48.854;9.302;2023-04-25T08:20:07;8.90;99.90
2100;DHT22;1055;48.854;9.302;2023-04-25T08:22:32;9.00;99.90
2100;DHT22;1055;48.854;9.302;2023-04-25T08:24:59;9.40;99.90
2100;DHT22;1055;48.854;9.302;2023-04-25T08:27:25;9.20;99.90
2100;DHT22;1055;48.854;9.302;2023-04-25T08:29:50;9.20;99.90
2100;DHT22;1055;48.854;9.302;2023-04-25T08:32:16;9.20;99.90
2100;DHT22;1055;48.854;9.302;2023-04-25T08:34:42;9.40;99.90
2100;DHT22;1055;48.854;9.302;2023-04-25T08:37:09;9.50;99.90
2100;DHT22;1055;48.854;9.302;2023-04-25T08:39:36;9.40;99.90
2100;DHT22;1055;48.854;9.302;2023-04-25T08:42:05;9.30;99.90
2100;DHT22;1055;48.854;9.302;2023-04-25T08:44:33;9.30;99.90
2100;DHT22;1055;48.854;9.302;2023-04-25T08:47:05;9.50;99.90
2100;DHT22;1055;48.854;9.302;2023-04-25T08:49:32;9.70;99.90
2100;DHT22;1055;48.854;9.302;2023-04-25T08:52:00;9.70;99.90
2100;DHT22;1055;48.854;9.302;2023-04-25T08:54:27;9.60;99.90
2100;DHT22;1055;48.854;9.302;2023-04-25T08:56:54;9.30;99.90
2100;DHT22;1055;48.854;9.302;2023-04-25T08:59:23;9.40;99.90
2100;DHT22;1055;48.854;9.302;2023-04-25T09:01:52;9.60;99.90
2100;DHT22;1055;48.854;9.302;2023-04-25T09:04:18;9.80;99.90
2100;DHT22;1055;48.854;9.302;2023-04-25T09:06:44;9.90;99.90
2100;DHT22;1055;48.854;9.302;2023-04-25T09:09:10;10.10;99.90
2100;DHT22;1055;48.854;9.302;2023-04-25T09:11:37;9.70;99.90
2100;DHT22;1055;48.854;9.302;2023-04-25T09:19:28;9.80;99.90
2100;DHT22;1055;48.854;9.302;2023-04-25T09:21:55;9.90;99.90
2100;DHT22;1055;48.854;9.302;2023-04-25T09:24:43;9.70;99.90
2100;DHT22;1055;48.854;9.302;2023-04-25T09:27:13;9.10;99.90
2100;DHT22;1055;48.854;9.302;2023-04-25T09:29:43;8.80;99.90
2100;DHT22;1055;48.854;9.302;2023-04-25T09:34:45;8.60;99.90
2100;DHT22;1055;48.854;9.302;2023-04-25T09:37:17;8.40;99.90
2100;DHT22;1055;48.854;9.302;2023-04-25T09:39:45;8.40;99.90
2100;DHT22;1055;48.854;9.302;2023-04-25T09:42:12;8.50;99.90
2100;DHT22;1055;48.854;9.302;2023-04-25T09:44:42;8.40;99.90
2100;DHT22;1055;48.854;9.302;2023-04-25T09:47:12;8.90;99.90
2100;DHT22;1055;48.854;9.302;2023-04-25T09:49:42;8.40;99.90
2100;DHT22;1055;48.854;9.302;2023-04-25T09:52:09;8.30;99.90
2100;DHT22;1055;48.854;9.302;2023-04-25T09:54:35;8.40;99.90
2100;DHT22;1055;48.854;9.302;2023-04-25T09:57:24;8.40;99.90
2100;DHT22;1055;48.854;9.302;2023-04-25T09:59:52;8.20;99.90
2100;DHT22;1055;48.854;9.302;2023-04-25T10:02:20;8.20;99.90
2100;DHT22;1055;48.854;9.302;2023-04-25T10:04:54;7.20;99.90
2100;DHT22;1055;48.854;9.302;2023-04-25T10:07:25;8.30;99.90
2100;DHT22;1055;48.854;9.302;2023-04-25T10:09:58;8.10;99.90
2100;DHT22;1055;48.854;9.302;2023-04-25T10:12:26;8.00;99.90
2100;DHT22;1055;48.854;9.302;2023-04-25T10:14:52;8.00;99.90
2100;DHT22;1055;48.854;9.302;2023-04-25T10:17:19;7.90;99.90
2100;DHT22;1055;48.854;9.302;2023-04-25T10:19:49;7.90;99.90
2100;DHT22;1055;48.854;9.302;2023-04-25T10:24:45;7.90;99.90
2100;DHT22;1055;48.854;9.302;2023-04-25T10:27:12;7.80;99.90
2100;DHT22;1055;48.854;9.302;2023-04-25T10:29:37;7.60;99.90
2100;DHT22;1055;48.854;9.302;2023-04-25T10:32:04;7.40;99.90
2100;DHT22;1055;48.854;9.302;2023-04-25T10:34:43;7.20;99.90
2100;DHT22;1055;48.854;9.302;2023-04-25T10:37:13;7.20;99.90
2100;DHT22;1055;48.854;9.302;2023-04-25T10:39:42;7.20;99.90
2100;DHT22;1055;48.854;9.302;2023-04-25T10:42:08;7.10;99.90
2100;DHT22;1055;48.854;9.302;2023-04-25T10:44:34;7.00;99.90
2100;DHT22;1055;48.854;9.302;2023-04-25T10:47:02;6.90;99.90
2100;DHT22;1055;48.854;9.302;2023-04-25T10:55:02;6.70;99.90
2100;DHT22;1055;48.854;9.302;2023-04-25T10:57:30;6.70;99.90
2100;DHT22;1055;48.854;9.302;2023-04-25T11:00:00;6.60;99.90
2100;DHT22;1055;48.854;9.302;2023-04-25T11:02:27;6.80;99.90
2100;DHT22;1055;48.854;9.302;2023-04-25T11:04:54;6.90;99.90
2100;DHT22;1055;48.854;9.302;2023-04-25T11:07:33;7.20;99.90
2100;DHT22;1055;48.854;9.302;2023-04-25T11:10:02;7.30;99.90
2100;DHT22;1055;48.854;9.302;2023-04-25T11:12:30;7.30;99.90
2100;DHT22;1055;48.854;9.302;2023-04-25T11:15:04;7.60;99.90
2100;DHT22;1055;48.854;9.302;2023-04-25T11:17:30;7.70;99.90
2100;DHT22;1055;48.854;9.302;2023-04-25T11:19:56;7.90;99.90
2100;DHT22;1055;48.854;9.302;2023-04-25T11:22:23;8.20;99.90
2100;DHT22;1055;48.854;9.302;2023-04-25T11:24:48;8.10;99.90
2100;DHT22;1055;48.854;9.302;2023-04-25T11:27:14;8.20;99.90
2100;DHT22;1055;48.854;9.302;2023-04-25T11:29:40;7.90;99.90
2100;DHT22;1055;48.854;9.302;2023-04-25T11:32:06;7.80;99.90
2100;DHT22;1055;48.854;9.302;2023-04-25T11:34:33;8.30;99.90
2100;DHT22;1055;48.854;9.302;2023-04-25T11:37:02;8.60;99.90
2100;DHT22;1055;48.854;9.302;2023-04-25T11:39:28;8.80;99.90
2100;DHT22;1055;48.854;9.302;2023-04-25T11:41:54;9.00;99.90
2100;DHT22;1055;48.854;9.302;2023-04-25T11:44:21;9.10;99.90
2100;DHT22;1055;48.854;9.302;2023-04-25T11:46:47;8.40;99.90
2100;DHT22;1055;48.854;9.302;2023-04-25T11:49:14;8.00;99.90
2100;DHT22;1055;48.854;9.302;2023-04-25T11:51:47;8.20;99.90
2100;DHT22;1055;48.854;9.302;2023-04-25T11:54:14;8.20;99.90
2100;DHT22;1055;48.854;9.302;2023-04-25T11:56:44;8.30;99.90
2100;DHT22;1055;48.854;9.302;2023-04-25T11:59:11;8.30;99.90
2100;DHT22;1055;48.854;9.302;2023-04-25T12:01:39;8.20;99.90
2100;DHT22;1055;48.854;9.302;2023-04-25T12:06:38;8.00;99.90
2100;DHT22;1055;48.854;9.302;2023-04-25T12:09:08;8.00;99.90
2100;DHT22;1055;48.854;9.302;2023-04-25T12:11:44;7.80;99.90
2100;DHT22;1055;48.854;9.302;2023-04-25T12:14:12;7.80;99.90
2100;DHT22;1055;48.854;9.302;2023-04-25T12:16:45;8.00;99.90
2100;DHT22;1055;48.854;9.302;2023-04-25T12:19:15;8.00;99.90
2100;DHT22;1055;48.854;9.302;2023-04-25T12:21:43;7.90;99.90
2100;DHT22;1055;48.854;9.302;2023-04-25T12:24:17;7.90;99.90
2100;DHT22;1055;48.854;9.302;2023-04-25T12:29:21;8.00;99.90
2100;DHT22;1055;48.854;9.302;2023-04-25T12:31:48;8.00;99.90
2100;DHT22;1055;48.854;9.302;2023-04-25T12:34:14;8.00;99.90
2100;DHT22;1055;48.854;9.302;2023-04-25T12:36:40;8.00;99.90
2100;DHT22;1055;48.854;9.302;2023-04-25T12:39:06;8.20;99.90
2100;DHT22;1055;48.854;9.302;2023-04-25T12:41:32;8.10;99.90
2100;DHT22;1055;48.854;9.302;2023-04-25T12:43:57;8.00;99.90
2100;DHT22;1055;48.854;9.302;2023-04-25T12:46:23;7.90;99.90
2100;DHT22;1055;48.854;9.302;2023-04-25T12:48:49;7.90;99.90
2100;DHT22;1055;48.854;9.302;2023-04-25T12:51:15;8.00;99.90
2100;DHT22;1055;48.854;9.302;2023-04-25T12:53:41;8.00;99.90
2100;DHT22;1055;48.854;9.302;2023-04-25T12:56:07;8.10;99.90
2100;DHT22;1055;48.854;9.302;2023-04-25T12:58:33;8.30;99.90
2100;DHT22;1055;48.854;9.302;2023-04-25T13:00:59;8.60;99.90
2100;DHT22;1055;48.854;9.302;2023-04-25T13:03:25;8.70;99.90
2100;DHT22;1055;48.854;9.302;2023-04-25T13:05:51;8.80;99.90
2100;DHT22;1055;48.854;9.302;2023-04-25T13:08:18;9.00;99.90
2100;DHT22;1055;48.854;9.302;2023-04-25T13:10:44;9.20;99.90
2100;DHT22;1055;48.854;9.302;2023-04-25T13:13:10;9.50;99.90
2100;DHT22;1055;48.854;9.302;2023-04-25T13:15:36;9.50;99.90
2100;DHT22;1055;48.854;9.302;2023-04-25T13:18:03;9.80;99.90
2100;DHT22;1055;48.854;9.302;2023-04-25T13:20:29;9.80;99.90
2100;DHT22;1055;48.854;9.302;2023-04-25T13:22:54;9.70;99.90
2100;DHT22;1055;48.854;9.302;2023-04-25T13:25:20;9.80;99.90
2100;DHT22;1055;48.854;9.302;2023-04-25T13:27:47;9.90;99.90
2100;DHT22;1055;48.854;9.302;2023-04-25T13:30:13;9.80;99.90
2100;DHT22;1055;48.854;9.302;2023-04-25T13:32:39;9.80;99.90
2100;DHT22;1055;48.854;9.302;2023-04-25T13:35:07;9.60;99.90
2100;DHT22;1055;48.854;9.302;2023-04-25T13:37:33;9.70;99.90
2100;DHT22;1055;48.854;9.302;2023-04-25T13:40:00;9.70;99.90
2100;DHT22;1055;48.854;9.302;2023-04-25T13:42:26;9.60;99.90
2100;DHT22;1055;48.854;9.302;2023-04-25T13:44:51;9.50;99.90
2100;DHT22;1055;48.854;9.302;2023-04-25T13:47:17;9.60;99.90
2100;DHT22;1055;48.854;9.302;2023-04-25T13:49:43;9.70;99.90
2100;DHT22;1055;48.854;9.302;2023-04-25T13:52:08;9.60;99.90
2100;DHT22;1055;48.854;9.302;2023-04-25T13:54:34;9.60;99.90
2100;DHT22;1055;48.854;9.302;2023-04-25T13:56:59;9.50;99.90
2100;DHT22;1055;48.854;9.302;2023-04-25T13:59:25;9.70;99.90
2100;DHT22;1055;48.854;9.302;2023-04-25T14:01:51;9.80;99.90
2100;DHT22;1055;48.854;9.302;2023-04-25T14:04:19;10.00;99.90
2100;DHT22;1055;48.854;9.302;2023-04-25T14:06:46;10.00;99.90
2100;DHT22;1055;48.854;9.302;2023-04-25T14:09:12;10.30;99.90
2100;DHT22;1055;48.854;9.302;2023-04-25T14:11:40;10.60;99.90
2100;DHT22;1055;48.854;9.302;2023-04-25T14:14:06;10.60;99.90
2100;DHT22;1055;48.854;9.302;2023-04-25T14:16:34;10.30;99.90
2100;DHT22;1055;48.854;9.302;2023-04-25T14:19:00;10.30;99.90
2100;DHT22;1055;48.854;9.302;2023-04-25T14:21:27;10.20;99.90
2100;DHT22;1055;48.854;9.302;2023-04-25T14:23:54;10.30;99.90
2100;DHT22;1055;48.854;9.302;2023-04-25T14:26:20;10.30;99.90
2100;DHT22;1055;48.854;9.302;2023-04-25T14:28:45;10.40;99.90
2100;DHT22;1055;48.854;9.302;2023-04-25T14:31:11;10.90;99.90
2100;DHT22;1055;48.854;9.302;2023-04-25T14:33:36;11.00;99.90
2100;DHT22;1055;48.854;9.302;2023-04-25T14:36:05;11.30;99.90
2100;DHT22;1055;48.854;9.302;2023-04-25T14:40:57;11.30;99.90
2100;DHT22;1055;48.854;9.302;2023-04-25T14:43:22;11.20;99.90
2100;DHT22;1055;48.854;9.302;2023-04-25T14:45:48;11.00;99.90
2100;DHT22;1055;48.854;9.302;2023-04-25T14:48:14;11.00;99.90
2100;DHT22;1055;48.854;9.302;2023-04-25T14:50:40;11.00;99.90
2100;DHT22;1055;48.854;9.302;2023-04-25T14:53:06;11.30;99.90
2100;DHT22;1055;48.854;9.302;2023-04-25T14:55:32;10.50;99.90
2100;DHT22;1055;48.854;9.302;2023-04-25T15:00:23;11.20;99.90
2100;DHT22;1055;48.854;9.302;2023-04-25T15:05:17;12.00;99.90
2100;DHT22;1055;48.854;9.302;2023-04-25T15:07:43;12.30;99.90
2100;DHT22;1055;48.854;9.302;2023-04-25T15:10:09;12.00;99.90
2100;DHT22;1055;48.854;9.302;2023-04-25T15:12:41;11.70;99.90
2100;DHT22;1055;48.854;9.302;2023-04-25T15:15:08;11.40;99.90
2100;DHT22;1055;48.854;9.302;2023-04-25T15:17:46;11.20;99.90
2100;DHT22;1055;48.854;9.302;2023-04-25T15:25:07;12.00;99.90
2100;DHT22;1055;48.854;9.302;2023-04-25T15:27:33;11.80;99.90
2100;DHT22;1055;48.854;9.302;2023-04-25T15:30:06;11.70;99.90
2100;DHT22;1055;48.854;9.302;2023-04-25T15:32:33;11.80;99.90
2100;DHT22;1055;48.854;9.302;2023-04-25T15:34:58;11.20;99.90
2100;DHT22;1055;48.854;9.302;2023-04-25T15:37:24;11.00;99.90
2100;DHT22;1055;48.854;9.302;2023-04-25T15:40:04;11.00;99.90
2100;DHT22;1055;48.854;9.302;2023-04-25T15:42:41;11.00;99.90
2100;DHT22;1055;48.854;9.302;2023-04-25T15:45:08;11.20;99.90
2100;DHT22;1055;48.854;9.302;2023-04-25T15:47:36;11.30;99.90
2100;DHT22;1055;48.854;9.302;2023-04-25T15:50:03;11.30;99.90
2100;DHT22;1055;48.854;9.302;2023-04-25T15:54:55;11.90;99.90
2100;DHT22;1055;48.854;9.302;2023-04-25T15:57:21;12.10;99.90
2100;DHT22;1055;48.854;9.302;2023-04-25T15:59:47;11.50;99.90
2100;DHT22;1055;48.854;9.302;2023-04-25T16:02:13;12.00;99.90
2100;DHT22;1055;48.854;9.302;2023-04-25T16:04:39;12.20;99.90
2100;DHT22;1055;48.854;9.302;2023-04-25T16:11:59;11.90;99.90
2100;DHT22;1055;48.854;9.302;2023-04-25T16:14:25;11.90;99.90
2100;DHT22;1055;48.854;9.302;2023-04-25T16:16:50;11.80;99.90
2100;DHT22;1055;48.854;9.302;2023-04-25T16:19:16;11.80;99.90
2100;DHT22;1055;48.854;9.302;2023-04-25T16:21:42;11.30;99.90
2100;DHT22;1055;48.854;9.302;2023-04-25T16:24:08;11.20;99.90
2100;DHT22;1055;48.854;9.302;2023-04-25T16:29:03;11.10;99.90
2100;DHT22;1055;48.854;9.302;2023-04-25T16:33:55;11.30;99.90
2100;DHT22;1055;48.854;9.302;2023-04-25T16:36:20;11.20;99.90
2100;DHT22;1055;48.854;9.302;2023-04-25T16:38:46;11.20;99.90
2100;DHT22;1055;48.854;9.302;2023-04-25T16:41:12;11.20;99.90
2100;DHT22;1055;48.854;9.302;2023-04-25T16:43:38;11.40;99.90
2100;DHT22;1055;48.854;9.302;2023-04-25T16:46:07;11.40;99.90
2100;DHT22;1055;48.854;9.302;2023-04-25T16:48:32;11.60;99.90
2100;DHT22;1055;48.854;9.302;2023-04-25T16:50:59;11.30;99.90
2100;DHT22;1055;48.854;9.302;2023-04-25T16:53:24;11.20;99.90
2100;DHT22;1055;48.854;9.302;2023-04-25T16:55:50;11.20;99.90